Estación Meteorológica Peña el Pijo (Robertgarden) [ 01/30/23 15:05:25 CET ]

Fecha Hora Presion(HPa) Temp (°C) Humedad % Rocio (°C) Viento ( m/s) Direccion Lluvia 1Hora(mm) Lluvia 24H(mm) LLuvia Total(mm)
2012-Mar-08 01:01:15 1017.800 0.6 56 -7.2         153.32
2012-Mar-08 02:05:09 1017.900 2.3 50 -7.0         153.32
2012-Mar-08 03:01:16 1017.300 0.4 55 -7.6         153.32
2012-Mar-08 04:01:15 1016.200 0.8 52 -8.0         153.32
2012-Mar-08 05:01:13 1016.100 -0.7 58 -8.0         153.32
2012-Mar-08 06:01:13 1016.000 1.6 50 -7.7         153.32
2012-Mar-08 07:01:13 1016.400 0.5 53 -8.0         153.32
2012-Mar-08 08:01:12 1016.100 0.1 57 -7.4         153.32
2012-Mar-08 09:01:16 1015.700 4.9 56 -3.2         153.32
2012-Mar-08 10:01:16 1015.700 10.6 42 -1.8         153.32
2012-Mar-08 11:01:14 1015.800 11.9 39 -1.7 2.9 NNE     153.32
2012-Mar-08 12:01:13 1015.900 13.2 39 -0.5 1.6 NNE     153.32
2012-Mar-08 13:01:16 1015.200 14.1 34 -1.6 2.4 N     153.32
2012-Mar-08 14:01:19 1014.600 15.2 31 -1.9 2.6 NNW     153.32
2012-Mar-08 15:01:13 1013.800 15.9 31 -1.3         153.32
2012-Mar-08 16:01:19 1013.000 16.1 32 -0.7         153.32
2012-Mar-08 17:01:12 1013.100 15.5 29 -2.5         153.32
2012-Mar-08 18:01:13 1013.400 13.8 30 -3.5         153.32
2012-Mar-08 19:01:16 1014.200 11.6 30 -5.4         153.32
2012-Mar-08 20:01:14 1014.700 8.4 35 -6.3         153.32
2012-Mar-08 21:01:16 1014.800 5.2 43 -6.5         153.32
2012-Mar-08 22:01:14 1015.400 2.8 51 -6.3         153.32
2012-Mar-08 23:01:13 1016.100 1.4 54 -6.9         153.32

Temperatura Máxima:16°    Temperatura Mínima:
Presión Máxima:1017.900 Hpa    Presión Mínima:1013.000 Hpa


Volver